Terminal Aerodrome Forecast
Issued by NWS

Home | Current Version | Previous Version | Graphics & Text | Print | Product List | Glossary On
Versions: 1 2 3 4 5 6 7 8 9 10 11 12 13 14 15 16 17
092
FTUS43 KMPX 241734
TAFRNH
TAF
KRNH 241734Z 2418/2518 28013G19KT P6SM SCT040 BKN120 BKN200
     FM250100 28008KT P6SM SCT120 BKN200
     FM250300 27004KT P6SM SKC
     FM251500 28008KT P6SM FEW040=

USA.gov is the U.S. government's official web portal to all federal, state and local government web resources and services.